OMAALPMA

Guest
Details From OMAA - Abu Dhabi Intl
To LPMA - Madeira
Flight Number -
Tags Generated
Created
Modified
Stats Distance 3,732 nm / 6,911 km
Max Altitude 0 ft / 0 m
Waypoints 9
Social Downloads 1
Likes 0
Share VATSIM

Download

Looking for another format? Having issues loading an existing format? Contact us
Advertisement - Login to hide

Notes

Generated

Route

OMAA SIA14 KINAR VARIG KIRAS MAHDI ODAXA FUN LPMA

ID Type Via Altitude Latitude Longitude Leg Dist Tot Dist Heading (true) Name
O OMAA APT - 0 ft / 0 m 24.44439˚ 54.63521˚ - 0 nm - -
SIA14 FIX - 0 ft / 0 m 26.01541˚ 50.78680˚ 229 nm 229 nm 295° / 293° -
KINAR FIX - 0 ft / 0 m 30.94393˚ 35.35136˚ 865 nm 1095 nm 294° / 286° -
VARIG FIX - 0 ft / 0 m 34.33333˚ 13.67306˚ 1112 nm 2208 nm 286° / 274° -
KIRAS FIX - 0 ft / 0 m 34.40611˚ 9.92028˚ 186 nm 2394 nm 272° / 270° -
MAHDI FIX - 0 ft / 0 m 34.61667˚ 5.00000˚ 243 nm 2638 nm 274° / 272° -
ODAXA FIX - 0 ft / 0 m 33.99389˚ -8.24222˚ 657 nm 3295 nm 270° / 263° -
FUN VOR - 0 ft / 0 m 32.74704˚ -16.70569˚ 430 nm 3726 nm 262° / 258° MADEIRA VOR-DME
O LPMA APT - 0 ft / 0 m 32.68900˚ -16.78409˚ 5 nm 3731 nm 229° / 229° -

Altitude Profile

Advertisement - Login to hide

Weather


0- 5 10 15 20 25 30 35+ Temperature / ° C

Clouds and Precipitation
Forecast for 2017-12-14 18:00 UTC. Updated 21 minutes ago

Ground ~20,000 ft ~40,000 ft Winds

OMAA

Details ICAO OMAA (AUH)
Name ABU DHABI INTL
Region United Arab Emirates
Timezone Asia/Dubai (UTC+4.0)
Stats Elevation 88 ft / 27 m (AMSL)
Location 24.433049° 54.651182°
Runways 1
Magnetic Variation 1.979° E

METAR

OMAA 141500Z 34005KT CAVOK 23/15 Q1016 NOSIG

Decode

TAF

TAF OMAA 141100Z 1412/1518 17009KT 8000 SCT030 BECMG 1413/1415 36007KT BECMG 1417/1419 06005KT BECMG 1421/1423 12005KT BECMG 1504/1506 18011KT PROB30 TEMPO 1506/1511 18018KT 4000 BLDU

Decode

Departure Runways

ID Width Length Bearing (true) Bearing (mag) Surface Threshold Offset Overrun Length
13 148 ft / 45 m 13,461 ft / 4,103 m 127.94° 125.96° Asphalt 0 ft / 0 m 180 ft / 55 m
31 148 ft / 45 m 13,461 ft / 4,103 m 307.95° 305.97° Asphalt 0 ft / 0 m 196 ft / 60 m

LPMA

Details ICAO LPMA (FNC)
Name Madeira
Region Portugal
Timezone Atlantic/Madeira (UTC+0.0)
Stats Elevation 192 ft / 59 m (AMSL)
Location 32.697704° -16.774449°
Runways 1
Magnetic Variation 4.982° W

METAR

LPMA 141530Z 36006KT 270V040 9999 SCT016 20/13 Q1028

Decode

TAF

TAF LPMA 141100Z 1412/1512 01012KT 9999 SCT015 TEMPO 1412/1512 BKN015

Decode

Destination Runways

ID Width Length Bearing (true) Bearing (mag) Surface Threshold Offset Overrun Length
05 141 ft / 43 m 8,683 ft / 2,647 m 42.98° 47.96° Asphalt 472 ft / 144 m 0 ft / 0 m
23 141 ft / 43 m 8,683 ft / 2,647 m 222.99° 227.97° Asphalt 466 ft / 142 m 0 ft / 0 m